Time;durP1;ratioP1;P1;durP2;ratioP2;P2;SDS_P1;SDS_P2;PMS_P1;PMS_P2;Temp;Humidity;BMP_temperature;BMP_pressure;BME280_temperature;BME280_humidity;BME280_pressure;Samples;Min_cycle;Max_cycle;Signal;HPM_P1;HPM_P2
2021/08/13 07:18:44;;;;;;;9.88;7.82;;;;;;;;;;5070807;28;20550;-70
2021/08/13 07:21:10;;;;;;;16.25;9.02;;;;;;;;;;5070743;28;20637;-70
2021/08/13 07:23:36;;;;;;;9.32;7.20;;;;;;;;;;5070669;28;20164;-70
2021/08/13 07:26:01;;;;;;;11.25;7.28;;;;;;;;;;5070670;28;20625;-70
2021/08/13 07:28:28;;;;;;;8.25;7.32;;;;;;;;;;5069354;28;20233;-70
2021/08/13 07:30:54;;;;;;;15.90;8.48;;;;;;;;;;5070554;28;20171;-70
2021/08/13 07:33:20;;;;;;;9.63;8.00;;;;;;;;;;5070486;28;20172;-70
2021/08/13 07:35:46;;;;;;;12.48;8.77;;;;;;;;;;5070462;28;20708;-70
2021/08/13 07:38:12;;;;;;;16.15;8.77;;;;;;;;;;5070427;28;20276;-70
2021/08/13 07:40:38;;;;;;;9.23;8.43;;;;;;;;;;5070299;28;20171;-70
2021/08/13 07:43:07;;;;;;;11.77;8.18;;;;;;;;;;5070221;28;20245;-70
2021/08/13 07:45:33;;;;;;;10.65;9.52;;;;;;;;;;5069060;28;20168;-70
2021/08/13 07:47:59;;;;;;;13.00;9.55;;;;;;;;;;5070191;28;20548;-70
2021/08/13 07:50:26;;;;;;;10.88;9.77;;;;;;;;;;5070109;28;20172;-70
2021/08/13 07:52:52;;;;;;;10.02;9.02;;;;;;;;;;5070064;28;20178;-70
2021/08/13 07:55:18;;;;;;;13.50;9.82;;;;;;;;;;5068753;28;20191;-70
2021/08/13 07:57:44;;;;;;;12.55;9.40;;;;;;;;;;5069900;28;20196;-70
2021/08/13 08:00:10;;;;;;;11.68;10.48;;;;;;;;;;5069991;28;20166;-70
2021/08/13 08:02:36;;;;;;;12.75;9.73;;;;;;;;;;5068662;28;20176;-70
2021/08/13 08:05:02;;;;;;;14.57;10.10;;;;;;;;;;5069811;28;20202;-70
2021/08/13 08:07:29;;;;;;;12.05;9.85;;;;;;;;;;5069741;28;20173;-70
2021/08/13 08:09:54;;;;;;;14.55;10.32;;;;;;;;;;5069734;28;20171;-70
2021/08/13 08:12:20;;;;;;;18.55;10.23;;;;;;;;;;5069716;28;20225;-70
2021/08/13 08:14:46;;;;;;;12.20;10.10;;;;;;;;;;5069617;28;20176;-70
2021/08/13 08:17:12;;;;;;;17.40;13.18;;;;;;;;;;5069328;28;20250;-70
2021/08/13 08:19:38;;;;;;;20.73;12.02;;;;;;;;;;5069535;28;20624;-70
2021/08/13 08:22:04;;;;;;;21.38;13.07;;;;;;;;;;5068178;28;20175;-70
2021/08/13 08:24:30;;;;;;;16.05;12.07;;;;;;;;;;5069449;28;20246;-70
2021/08/13 08:26:56;;;;;;;25.38;14.15;;;;;;;;;;5069369;28;20225;-70
2021/08/13 08:29:23;;;;;;;19.45;14.05;;;;;;;;;;5058862;28;20527;-70
2021/08/13 08:31:49;;;;;;;19.15;13.73;;;;;;;;;;5054929;28;20686;-70
2021/08/13 08:34:15;;;;;;;21.48;13.38;;;;;;;;;;5056064;28;20176;-70
2021/08/13 08:36:41;;;;;;;19.30;13.70;;;;;;;;;;5055935;28;20282;-70
2021/08/13 08:39:07;;;;;;;18.02;14.40;;;;;;;;;;5056167;28;20178;-70
2021/08/13 08:41:33;;;;;;;27.60;14.02;;;;;;;;;;5055937;28;20234;-70
2021/08/13 08:43:59;;;;;;;20.70;14.93;;;;;;;;;;5055878;28;20211;-70
2021/08/13 08:46:25;;;;;;;19.10;15.07;;;;;;;;;;5054560;28;20168;-70
2021/08/13 08:48:52;;;;;;;24.27;15.85;;;;;;;;;;5055810;28;20571;-70
2021/08/13 08:51:19;;;;;;;23.38;15.23;;;;;;;;;;5055754;28;20222;-70
2021/08/13 08:53:53;;;;;;;20.95;15.43;;;;;;;;;;5055712;28;20621;-70
2021/08/13 08:56:19;;;;;;;19.92;14.88;;;;;;;;;;5055594;28;20168;-70
2021/08/13 08:58:46;;;;;;;25.67;15.52;;;;;;;;;;5055549;28;20169;-70
2021/08/13 09:01:13;;;;;;;28.00;16.23;;;;;;;;;;5055498;28;20161;-70
2021/08/13 09:03:41;;;;;;;28.02;17.48;;;;;;;;;;5055534;28;20157;-70
2021/08/13 09:06:07;;;;;;;25.65;15.70;;;;;;;;;;5055493;28;20200;-70
2021/08/13 09:08:33;;;;;;;22.60;16.10;;;;;;;;;;5054197;28;20214;-70
2021/08/13 09:10:59;;;;;;;24.60;15.20;;;;;;;;;;5055405;28;20168;-70
2021/08/13 09:13:25;;;;;;;24.52;15.90;;;;;;;;;;5055347;28;20260;-70
2021/08/13 09:15:52;;;;;;;33.58;16.95;;;;;;;;;;5055193;28;20630;-70
2021/08/13 09:18:22;;;;;;;27.85;18.35;;;;;;;;;;5054993;28;20220;-70
2021/08/13 09:20:54;;;;;;;24.45;16.10;;;;;;;;;;5055158;28;20533;-70
2021/08/13 09:23:37;;;;;;;22.80;16.52;;;;;;;;;;5055140;28;20165;-70
2021/08/13 09:26:08;;;;;;;26.52;16.95;;;;;;;;;;5055097;28;20493;-70
2021/08/13 09:28:38;;;;;;;22.75;16.52;;;;;;;;;;5055068;28;20168;-70
2021/08/13 09:31:14;;;;;;;25.25;16.13;;;;;;;;;;5055011;28;20230;-70
2021/08/13 09:33:40;;;;;;;27.40;16.95;;;;;;;;;;5054978;28;20176;-70
2021/08/13 09:36:07;;;;;;;21.23;15.02;;;;;;;;;;5054941;28;20207;-70
2021/08/13 09:38:33;;;;;;;23.40;16.05;;;;;;;;;;5054780;28;20533;-70
2021/08/13 09:41:09;;;;;;;31.77;16.25;;;;;;;;;;5052528;28;20172;-70
2021/08/13 09:43:56;;;;;;;23.05;15.85;;;;;;;;;;5054659;28;20190;-70
2021/08/13 09:46:22;;;;;;;26.60;16.08;;;;;;;;;;5053307;28;20554;-70
2021/08/13 09:48:48;;;;;;;25.27;16.10;;;;;;;;;;5054675;28;20165;-70
2021/08/13 09:51:30;;;;;;;23.08;16.55;;;;;;;;;;5054585;28;20176;-70
2021/08/13 09:54:04;;;;;;;21.30;15.52;;;;;;;;;;5054564;28;20188;-70
2021/08/13 09:56:34;;;;;;;34.47;16.20;;;;;;;;;;5054423;28;20661;-70
2021/08/13 09:59:11;;;;;;;26.65;16.15;;;;;;;;;;5054443;28;20630;-70
2021/08/13 10:01:41;;;;;;;24.38;15.70;;;;;;;;;;5054358;28;20175;-70
2021/08/13 10:04:07;;;;;;;26.70;17.85;;;;;;;;;;5054339;28;20160;-70
2021/08/13 10:06:35;;;;;;;31.63;19.95;;;;;;;;;;5054362;28;20175;-70
2021/08/13 10:09:01;;;;;;;27.98;19.02;;;;;;;;;;5053010;28;20259;-70
2021/08/13 10:11:27;;;;;;;35.05;22.60;;;;;;;;;;5054213;28;20691;-70
2021/08/13 10:13:54;;;;;;;33.58;21.40;;;;;;;;;;5054186;28;20172;-70
2021/08/13 10:16:23;;;;;;;32.00;21.92;;;;;;;;;;5053961;28;20548;-70
2021/08/13 10:18:55;;;;;;;33.15;22.08;;;;;;;;;;5054160;28;20188;-70
2021/08/13 10:21:22;;;;;;;35.70;21.77;;;;;;;;;;5054089;28;20161;-70
2021/08/13 10:23:49;;;;;;;33.38;20.90;;;;;;;;;;5054050;28;20347;-70
2021/08/13 10:26:16;;;;;;;30.45;21.35;;;;;;;;;;5054071;28;20164;-70
2021/08/13 10:28:42;;;;;;;37.10;21.95;;;;;;;;;;5052570;28;20180;-70
2021/08/13 10:31:08;;;;;;;41.65;23.27;;;;;;;;;;5052569;28;20176;-70
2021/08/13 10:33:34;;;;;;;35.00;22.88;;;;;;;;;;5053892;28;20175;-70
2021/08/13 10:36:01;;;;;;;29.45;19.77;;;;;;;;;;5053808;28;20536;-70
2021/08/13 10:38:29;;;;;;;34.65;20.45;;;;;;;;;;5053666;28;20206;-70
2021/08/13 10:40:55;;;;;;;33.45;20.65;;;;;;;;;;5053723;28;20179;-70
2021/08/13 10:43:27;;;;;;;30.48;22.23;;;;;;;;;;5053590;28;20271;-70
2021/08/13 10:45:54;;;;;;;31.60;21.35;;;;;;;;;;5053794;28;20171;-70
2021/08/13 10:48:22;;;;;;;29.65;20.80;;;;;;;;;;5053631;28;20263;-70
2021/08/13 10:50:48;;;;;;;30.98;19.77;;;;;;;;;;5053572;28;20172;-70
2021/08/13 10:53:30;;;;;;;29.02;19.50;;;;;;;;;;5053279;28;20211;-70
2021/08/13 10:55:57;;;;;;;29.80;18.70;;;;;;;;;;5053423;28;20172;-70
2021/08/13 10:58:41;;;;;;;29.77;21.13;;;;;;;;;;5053372;28;20220;-70
2021/08/13 11:01:08;;;;;;;39.45;19.30;;;;;;;;;;5053423;28;20160;-70
2021/08/13 11:03:35;;;;;;;26.50;19.63;;;;;;;;;;5052219;28;20169;-70
2021/08/13 11:06:02;;;;;;;31.85;19.50;;;;;;;;;;5053382;28;20239;-70
2021/08/13 11:08:40;;;;;;;35.67;20.13;;;;;;;;;;5053242;28;20203;-70
2021/08/13 11:11:07;;;;;;;30.95;20.77;;;;;;;;;;5053330;28;20165;-70
2021/08/13 11:13:38;;;;;;;31.45;20.95;;;;;;;;;;5053512;28;20175;-70
2021/08/13 11:16:24;;;;;;;31.17;20.77;;;;;;;;;;5053263;28;20251;-70
2021/08/13 11:18:57;;;;;;;29.48;19.35;;;;;;;;;;5053120;28;20188;-70
2021/08/13 11:21:46;;;;;;;25.70;17.60;;;;;;;;;;5053229;28;20168;-70
2021/08/13 11:24:12;;;;;;;28.98;17.25;;;;;;;;;;5053180;28;20161;-70
2021/08/13 11:26:50;;;;;;;26.70;18.23;;;;;;;;;;5053172;28;20164;-70
2021/08/13 11:29:29;;;;;;;23.52;17.02;;;;;;;;;;5051815;28;20179;-70
2021/08/13 11:31:55;;;;;;;26.25;16.58;;;;;;;;;;5052072;28;20195;-70
2021/08/13 11:34:40;;;;;;;17.05;13.95;;;;;;;;;;5053078;28;20226;-70
2021/08/13 11:37:06;;;;;;;15.90;11.93;;;;;;;;;;5052969;28;20216;-70
2021/08/13 11:39:34;;;;;;;12.77;10.88;;;;;;;;;;5051670;28;20215;-70
2021/08/13 11:42:07;;;;;;;18.10;10.25;;;;;;;;;;5053030;28;20179;-70
2021/08/13 11:44:34;;;;;;;12.95;9.05;;;;;;;;;;5053128;28;20552;-70
2021/08/13 11:47:00;;;;;;;9.90;8.40;;;;;;;;;;5053032;28;20164;-70
2021/08/13 11:49:26;;;;;;;14.30;9.38;;;;;;;;;;5052929;28;20567;-70
2021/08/13 11:51:52;;;;;;;11.65;8.52;;;;;;;;;;5052930;28;20175;-70
2021/08/13 11:54:28;;;;;;;10.82;9.00;;;;;;;;;;5052846;28;20203;-70
2021/08/13 11:56:54;;;;;;;13.90;8.45;;;;;;;;;;5053045;28;20188;-70
2021/08/13 11:59:20;;;;;;;9.98;8.43;;;;;;;;;;5052910;28;20165;-70
2021/08/13 12:01:47;;;;;;;9.27;7.97;;;;;;;;;;5051602;28;20180;-70
2021/08/13 12:04:20;;;;;;;12.25;8.20;;;;;;;;;;5054424;28;20164;-70
2021/08/13 12:07:04;;;;;;;7.43;6.80;;;;;;;;;;5056575;28;20192;-70
2021/08/13 12:09:31;;;;;;;5.75;5.28;;;;;;;;;;5056549;28;20168;-70
2021/08/13 12:11:58;;;;;;;6.90;5.45;;;;;;;;;;5057399;28;20218;-70
2021/08/13 12:14:24;;;;;;;5.55;5.10;;;;;;;;;;5058016;28;20183;-70
2021/08/13 12:16:56;;;;;;;5.75;5.05;;;;;;;;;;5057599;28;20274;-70
2021/08/13 12:19:23;;;;;;;5.95;4.68;;;;;;;;;;5055090;28;20306;-70
2021/08/13 12:22:07;;;;;;;10.63;5.28;;;;;;;;;;5056320;28;20172;-70
2021/08/13 12:24:37;;;;;;;5.53;4.65;;;;;;;;;;5055133;28;20518;-70
2021/08/13 12:27:06;;;;;;;5.22;4.82;;;;;;;;;;5055055;28;20260;-70
2021/08/13 12:29:33;;;;;;;5.35;4.95;;;;;;;;;;5056144;28;20648;-70
2021/08/13 12:32:00;;;;;;;6.93;4.75;;;;;;;;;;5056179;28;20172;-70
2021/08/13 12:34:27;;;;;;;6.30;4.88;;;;;;;;;;5056124;28;20169;-70
2021/08/13 12:37:05;;;;;;;5.68;5.28;;;;;;;;;;5055972;28;20207;-70
2021/08/13 12:39:32;;;;;;;5.30;4.40;;;;;;;;;;5056029;28;20183;-70
2021/08/13 12:41:58;;;;;;;8.30;4.50;;;;;;;;;;5055922;28;20161;-70
2021/08/13 12:44:24;;;;;;;4.80;4.32;;;;;;;;;;5055835;28;20187;-70
2021/08/13 12:46:51;;;;;;;5.45;3.80;;;;;;;;;;5055895;28;20195;-70
2021/08/13 12:49:19;;;;;;;4.50;3.88;;;;;;;;;;5055801;28;20394;-70
2021/08/13 12:51:45;;;;;;;4.25;3.95;;;;;;;;;;5055774;28;20171;-70
2021/08/13 12:54:30;;;;;;;4.15;3.95;;;;;;;;;;5055734;28;20175;-70
2021/08/13 12:56:56;;;;;;;3.88;3.58;;;;;;;;;;5055995;28;20598;-70
2021/08/13 12:59:30;;;;;;;6.43;3.35;;;;;;;;;;5055656;28;20192;-70
2021/08/13 13:01:56;;;;;;;4.22;3.83;;;;;;;;;;5055685;28;20584;-70
2021/08/13 13:04:22;;;;;;;3.47;3.17;;;;;;;;;;5055583;28;20653;-70
2021/08/13 13:06:49;;;;;;;3.70;3.50;;;;;;;;;;5055492;28;20177;-70
2021/08/13 13:09:28;;;;;;;3.70;3.42;;;;;;;;;;5055402;28;20532;-70
2021/08/13 13:12:11;;;;;;;3.80;3.50;;;;;;;;;;5055409;28;20168;-70
2021/08/13 13:14:37;;;;;;;3.72;3.40;;;;;;;;;;5055280;28;20172;-70
2021/08/13 13:17:07;;;;;;;4.53;2.70;;;;;;;;;;5055046;28;20231;-70
2021/08/13 13:19:33;;;;;;;2.90;2.70;;;;;;;;;;5055224;28;20175;-70
2021/08/13 13:22:14;;;;;;;2.67;2.47;;;;;;;;;;5055201;28;20176;-70
2021/08/13 13:24:40;;;;;;;3.05;2.85;;;;;;;;;;5055104;28;20164;-70
2021/08/13 13:27:06;;;;;;;3.00;2.80;;;;;;;;;;5055107;28;20660;-70
2021/08/13 13:29:43;;;;;;;2.50;2.22;;;;;;;;;;5055028;28;20176;-70
2021/08/13 13:32:17;;;;;;;4.05;2.47;;;;;;;;;;5054896;28;20172;-70
2021/08/13 13:34:59;;;;;;;2.63;2.40;;;;;;;;;;5054950;28;20218;-70
2021/08/13 13:37:26;;;;;;;2.50;2.40;;;;;;;;;;5054852;28;20196;-70
2021/08/13 13:39:52;;;;;;;3.10;2.90;;;;;;;;;;5054791;28;20165;-70
2021/08/13 13:42:25;;;;;;;2.17;2.08;;;;;;;;;;5053599;28;20165;-70
2021/08/13 13:44:51;;;;;;;2.45;2.25;;;;;;;;;;5054850;28;20219;-70
2021/08/13 13:47:17;;;;;;;2.97;2.30;;;;;;;;;;5054750;28;20188;-70
2021/08/13 13:49:43;;;;;;;2.00;1.90;;;;;;;;;;5054694;28;20176;-70
2021/08/13 13:52:09;;;;;;;2.30;2.20;;;;;;;;;;5054652;28;20655;-70
2021/08/13 13:54:35;;;;;;;2.20;2.08;;;;;;;;;;5054561;28;20535;-70
2021/08/13 13:57:01;;;;;;;4.88;2.17;;;;;;;;;;5054402;28;20281;-70
2021/08/13 13:59:27;;;;;;;2.42;2.08;;;;;;;;;;5054494;28;20172;-70
2021/08/13 14:01:53;;;;;;;1.83;1.73;;;;;;;;;;5053199;28;20263;-70
2021/08/13 14:04:19;;;;;;;2.55;2.45;;;;;;;;;;5054425;28;20255;-70
2021/08/13 14:06:45;;;;;;;2.58;2.00;;;;;;;;;;5054312;28;20164;-70
2021/08/13 14:09:11;;;;;;;2.42;2.15;;;;;;;;;;5054264;28;20173;-70
2021/08/13 14:11:37;;;;;;;2.30;2.20;;;;;;;;;;5054167;28;20176;-70
2021/08/13 14:14:03;;;;;;;3.15;2.03;;;;;;;;;;5054180;28;20190;-70
2021/08/13 14:16:29;;;;;;;1.95;1.83;;;;;;;;;;5054067;28;20160;-70
2021/08/13 14:18:55;;;;;;;2.33;2.13;;;;;;;;;;5054098;28;20200;-70
2021/08/13 14:21:21;;;;;;;2.17;2.05;;;;;;;;;;5054078;28;20187;-70
2021/08/13 14:23:47;;;;;;;1.65;1.60;;;;;;;;;;5054053;28;20225;-70
2021/08/13 14:26:13;;;;;;;4.13;1.80;;;;;;;;;;5052189;28;20169;-70
2021/08/13 14:28:39;;;;;;;2.05;1.83;;;;;;;;;;5053924;28;20614;-70
2021/08/13 14:31:05;;;;;;;2.50;1.80;;;;;;;;;;5053895;28;20179;-70
2021/08/13 14:33:31;;;;;;;2.95;2.72;;;;;;;;;;5053868;28;20168;-70
2021/08/13 14:35:57;;;;;;;2.47;2.28;;;;;;;;;;5053793;28;20522;-70
2021/08/13 14:38:23;;;;;;;3.38;2.40;;;;;;;;;;5053716;28;20232;-70
2021/08/13 14:40:49;;;;;;;5.32;2.50;;;;;;;;;;5053654;28;20175;-70
2021/08/13 14:43:15;;;;;;;3.60;2.40;;;;;;;;;;5053646;28;20193;-70
2021/08/13 14:45:41;;;;;;;4.55;2.28;;;;;;;;;;5053887;28;20169;-70
2021/08/13 14:48:07;;;;;;;2.17;2.08;;;;;;;;;;5053626;28;20175;-70
2021/08/13 14:50:33;;;;;;;2.17;2.08;;;;;;;;;;5053521;28;20183;-70
2021/08/13 14:52:59;;;;;;;2.85;2.75;;;;;;;;;;5053559;28;20180;-70
2021/08/13 14:55:25;;;;;;;2.60;2.20;;;;;;;;;;5053461;28;20221;-70
2021/08/13 14:57:51;;;;;;;4.18;2.70;;;;;;;;;;5053395;28;20547;-70
2021/08/13 15:00:17;;;;;;;3.28;2.95;;;;;;;;;;5053436;28;20287;-70
2021/08/13 15:02:43;;;;;;;2.80;2.40;;;;;;;;;;5053409;28;20168;-70
2021/08/13 15:05:09;;;;;;;3.25;2.40;;;;;;;;;;5053400;28;20171;-70
2021/08/13 15:07:35;;;;;;;2.90;2.70;;;;;;;;;;5053342;28;20541;-70
2021/08/13 15:10:01;;;;;;;2.90;2.67;;;;;;;;;;5053327;28;20165;-70
2021/08/13 15:12:29;;;;;;;4.55;2.88;;;;;;;;;;5053235;28;20172;-70
2021/08/13 15:14:55;;;;;;;3.22;3.00;;;;;;;;;;5053449;28;20175;-70
2021/08/13 15:17:21;;;;;;;3.15;2.58;;;;;;;;;;5053029;28;20224;-70
2021/08/13 15:19:48;;;;;;;5.22;3.25;;;;;;;;;;5053254;28;20196;-70
2021/08/13 15:22:14;;;;;;;3.95;2.47;;;;;;;;;;5053208;28;20165;-70
2021/08/13 15:24:40;;;;;;;2.97;2.72;;;;;;;;;;5053205;28;20226;-70
2021/08/13 15:27:06;;;;;;;4.45;2.72;;;;;;;;;;5053152;28;20618;-70
2021/08/13 15:29:32;;;;;;;3.42;3.17;;;;;;;;;;5053130;28;20180;-70
2021/08/13 15:31:58;;;;;;;3.33;3.03;;;;;;;;;;5053162;28;20626;-70
2021/08/13 15:34:24;;;;;;;2.53;2.40;;;;;;;;;;5051843;28;20176;-70
2021/08/13 15:36:50;;;;;;;3.58;2.90;;;;;;;;;;5052958;28;20177;-70
2021/08/13 15:39:16;;;;;;;2.72;2.53;;;;;;;;;;5054806;28;20196;-70
2021/08/13 15:41:42;;;;;;;3.10;2.80;;;;;;;;;;5057140;28;20500;-70
2021/08/13 15:44:08;;;;;;;3.10;2.90;;;;;;;;;;5057311;28;20227;-70
2021/08/13 15:46:34;;;;;;;4.03;2.65;;;;;;;;;;5057297;28;20171;-70
2021/08/13 15:49:00;;;;;;;3.00;2.70;;;;;;;;;;5055812;28;20176;-70
2021/08/13 15:51:26;;;;;;;3.00;2.80;;;;;;;;;;5056943;28;20523;-70
2021/08/13 15:53:52;;;;;;;2.80;2.60;;;;;;;;;;5056734;28;20271;-70
2021/08/13 15:56:18;;;;;;;3.08;2.88;;;;;;;;;;5056879;28;20256;-70
2021/08/13 15:58:44;;;;;;;9.35;2.50;;;;;;;;;;5056724;28;20204;-70
2021/08/13 16:01:10;;;;;;;3.80;2.72;;;;;;;;;;5056818;28;20160;-70
2021/08/13 16:03:36;;;;;;;2.97;2.78;;;;;;;;;;5056657;28;20213;-70
2021/08/13 16:06:02;;;;;;;2.83;2.58;;;;;;;;;;5056741;28;20229;-70
2021/08/13 16:08:28;;;;;;;4.10;2.60;;;;;;;;;;5056511;28;20172;-68
2021/08/13 16:10:56;;;;;;;4.15;3.35;;;;;;;;;;5056389;28;20169;-68
2021/08/13 16:13:22;;;;;;;3.58;2.92;;;;;;;;;;5055805;28;20642;-68
2021/08/13 16:15:52;;;;;;;5.50;3.25;;;;;;;;;;5056055;28;20259;-68
2021/08/13 16:18:18;;;;;;;2.83;2.63;;;;;;;;;;5056167;28;20262;-68
2021/08/13 16:20:44;;;;;;;3.28;2.97;;;;;;;;;;5055032;28;20168;-68
2021/08/13 16:23:10;;;;;;;3.35;3.05;;;;;;;;;;5056219;28;20168;-68
2021/08/13 16:25:36;;;;;;;3.30;3.10;;;;;;;;;;5054867;28;20160;-68
2021/08/13 16:28:02;;;;;;;4.10;3.53;;;;;;;;;;5056184;28;20187;-70
2021/08/13 16:30:28;;;;;;;3.38;2.90;;;;;;;;;;5056187;28;20226;-70
2021/08/13 16:32:55;;;;;;;2.95;2.75;;;;;;;;;;5056024;28;20173;-68
2021/08/13 16:35:21;;;;;;;3.85;2.90;;;;;;;;;;5055942;28;20203;-68
2021/08/13 16:37:48;;;;;;;3.95;3.00;;;;;;;;;;5055845;28;20231;-68
2021/08/13 16:40:14;;;;;;;3.33;3.13;;;;;;;;;;5055872;28;20171;-68
2021/08/13 16:42:40;;;;;;;6.05;3.47;;;;;;;;;;5055879;28;20222;-68
2021/08/13 16:45:07;;;;;;;6.30;3.25;;;;;;;;;;5055932;28;20168;-70
2021/08/13 16:47:33;;;;;;;3.05;2.85;;;;;;;;;;5055911;28;20179;-70
2021/08/13 16:49:59;;;;;;;4.00;2.88;;;;;;;;;;5055339;28;20259;-70
2021/08/13 16:52:26;;;;;;;3.40;3.10;;;;;;;;;;5054654;28;20184;-70
2021/08/13 16:54:52;;;;;;;5.43;3.90;;;;;;;;;;5055745;28;20332;-70
2021/08/13 16:57:18;;;;;;;3.80;3.60;;;;;;;;;;5055530;28;20199;-71
2021/08/13 16:59:44;;;;;;;3.60;3.40;;;;;;;;;;5055271;28;20165;-69
2021/08/13 17:02:12;;;;;;;3.10;2.90;;;;;;;;;;5055618;28;20164;-70
2021/08/13 17:04:38;;;;;;;4.95;4.57;;;;;;;;;;5055435;28;20160;-70
2021/08/13 17:07:04;;;;;;;4.82;4.32;;;;;;;;;;5055374;28;20247;-70
2021/08/13 17:09:30;;;;;;;7.05;3.92;;;;;;;;;;5055242;28;20175;-70
2021/08/13 17:11:56;;;;;;;4.70;4.30;;;;;;;;;;5055273;28;20622;-70
2021/08/13 17:14:23;;;;;;;7.70;4.25;;;;;;;;;;5054052;28;20539;-77
2021/08/13 17:16:49;;;;;;;4.03;3.63;;;;;;;;;;5054979;28;20228;-75
2021/08/13 17:19:15;;;;;;;5.35;3.65;;;;;;;;;;5055295;28;20169;-75
2021/08/13 17:21:41;;;;;;;4.65;3.47;;;;;;;;;;5055106;28;20168;-75
2021/08/13 17:24:07;;;;;;;5.25;3.97;;;;;;;;;;5053637;28;20191;-75
2021/08/13 17:26:34;;;;;;;4.88;4.28;;;;;;;;;;5055484;28;20176;-75
2021/08/13 17:29:00;;;;;;;6.20;4.28;;;;;;;;;;5054903;28;20177;-75
2021/08/13 17:31:26;;;;;;;5.18;4.30;;;;;;;;;;5054980;28;20175;-77
2021/08/13 17:33:52;;;;;;;6.65;3.88;;;;;;;;;;5054865;28;20172;-71
2021/08/13 17:36:18;;;;;;;4.47;4.07;;;;;;;;;;5054865;28;20168;-71
2021/08/13 17:38:44;;;;;;;5.38;4.32;;;;;;;;;;5054550;28;20588;-71
2021/08/13 17:41:11;;;;;;;3.88;3.58;;;;;;;;;;5054723;28;20172;-71
2021/08/13 17:43:37;;;;;;;4.45;3.88;;;;;;;;;;5054845;28;20168;-71
2021/08/13 17:46:02;;;;;;;6.13;4.57;;;;;;;;;;5054750;28;20208;-71
2021/08/13 17:48:29;;;;;;;7.18;4.32;;;;;;;;;;5054461;28;20571;-71
2021/08/13 17:50:55;;;;;;;4.97;4.53;;;;;;;;;;5053222;28;20169;-70
2021/08/13 17:53:21;;;;;;;6.60;4.63;;;;;;;;;;5054316;28;20524;-71
2021/08/13 17:55:46;;;;;;;6.18;4.20;;;;;;;;;;5054559;28;20176;-71
2021/08/13 17:58:12;;;;;;;5.40;4.90;;;;;;;;;;5053106;28;20711;-71
2021/08/13 18:00:39;;;;;;;8.00;5.93;;;;;;;;;;5054168;28;20223;-71
2021/08/13 18:03:05;;;;;;;5.93;5.22;;;;;;;;;;5053678;28;20195;-71
2021/08/13 18:05:31;;;;;;;8.88;7.32;;;;;;;;;;5054336;28;20165;-70
2021/08/13 18:07:57;;;;;;;8.95;7.10;;;;;;;;;;5054245;28;20175;-71
2021/08/13 18:10:24;;;;;;;7.72;6.97;;;;;;;;;;5054242;28;20164;-70
2021/08/13 18:12:50;;;;;;;7.93;7.13;;;;;;;;;;5054264;28;20168;-70
2021/08/13 18:15:17;;;;;;;15.02;10.60;;;;;;;;;;5054110;28;20183;-71
2021/08/13 18:17:42;;;;;;;9.90;8.27;;;;;;;;;;5052676;28;20239;-71
2021/08/13 18:20:09;;;;;;;9.18;8.27;;;;;;;;;;5054030;28;20164;-71
2021/08/13 18:22:35;;;;;;;11.57;7.78;;;;;;;;;;5054012;28;20261;-70
